createdAt,value
2023-04-21T00:00:44.035Z,20.10
2023-04-21T00:01:44.032Z,20.90
2023-04-21T00:02:44.109Z,17.00
2023-04-21T00:03:44.252Z,20.20
2023-04-21T00:04:44.148Z,21.70
2023-04-21T00:05:44.029Z,16.70
2023-04-21T00:06:43.970Z,17.90
2023-04-21T00:07:43.960Z,20.50
2023-04-21T00:08:43.973Z,23.60
2023-04-21T00:09:43.939Z,20.00
2023-04-21T00:10:43.925Z,20.30
2023-04-21T00:11:43.914Z,25.20
2023-04-21T00:12:43.902Z,20.30
2023-04-21T00:13:43.895Z,22.90
2023-04-21T00:14:43.886Z,19.90
2023-04-21T00:15:43.885Z,18.80
2023-04-21T00:16:43.856Z,19.90
2023-04-21T00:17:43.874Z,16.90
2023-04-21T00:18:43.856Z,18.40
2023-04-21T00:19:43.827Z,21.60
2023-04-21T00:20:43.819Z,20.80
2023-04-21T00:21:43.800Z,19.00
2023-04-21T00:22:43.792Z,22.20
2023-04-21T00:23:43.778Z,18.90
2023-04-21T00:24:43.792Z,18.00
2023-04-21T00:25:43.763Z,17.50
2023-04-21T00:26:43.748Z,21.80
2023-04-21T00:27:43.742Z,20.30
2023-04-21T00:28:43.726Z,19.00
2023-04-21T00:29:43.716Z,19.60
2023-04-21T00:30:43.711Z,21.20
2023-04-21T00:31:43.707Z,20.20
2023-04-21T00:32:43.716Z,23.50
2023-04-21T00:33:43.673Z,17.90
2023-04-21T00:34:43.658Z,21.90
2023-04-21T00:35:43.642Z,21.80
2023-04-21T00:36:43.639Z,22.10
2023-04-21T00:37:43.651Z,21.50
2023-04-21T00:38:43.615Z,19.10
2023-04-21T00:39:43.598Z,23.30
2023-04-21T00:40:43.610Z,20.40
2023-04-21T00:41:43.581Z,19.40
2023-04-21T00:42:43.569Z,20.90
2023-04-21T00:43:43.553Z,19.30
2023-04-21T00:44:43.544Z,18.30
2023-04-21T00:45:43.534Z,18.40
2023-04-21T00:46:43.601Z,24.70
2023-04-21T00:47:43.541Z,23.40
2023-04-21T00:48:43.500Z,22.20
2023-04-21T00:49:43.496Z,19.40
2023-04-21T00:50:43.484Z,18.60
2023-04-21T00:51:43.465Z,19.20
2023-04-21T00:52:43.456Z,21.20
2023-04-21T00:53:43.448Z,18.20
2023-04-21T00:54:43.443Z,18.50
2023-04-21T00:55:43.421Z,18.20
2023-04-21T00:56:43.435Z,20.70
2023-04-21T00:57:43.398Z,19.90
2023-04-21T00:58:43.392Z,18.60
2023-04-21T00:59:43.374Z,20.60
2023-04-21T01:00:43.431Z,21.20
2023-04-21T01:01:43.401Z,18.00
2023-04-21T01:02:43.588Z,22.40
2023-04-21T01:03:43.517Z,18.10
2023-04-21T01:04:43.321Z,22.10
2023-04-21T01:05:43.325Z,18.10
2023-04-21T01:06:43.334Z,22.60
2023-04-21T01:07:43.288Z,26.60
2023-04-21T01:08:43.274Z,17.10
2023-04-21T01:09:43.269Z,19.70
2023-04-21T01:10:43.262Z,20.00
2023-04-21T01:11:43.244Z,21.60
2023-04-21T01:12:43.258Z,24.70
2023-04-21T01:13:43.221Z,21.80
2023-04-21T01:14:43.216Z,19.80
2023-04-21T01:15:43.198Z,21.60
2023-04-21T01:16:43.227Z,24.10
2023-04-21T01:17:43.196Z,23.90
2023-04-21T01:18:43.166Z,18.60
2023-04-21T01:19:43.151Z,20.70
2023-04-21T01:20:43.144Z,22.80
2023-04-21T01:21:43.126Z,23.10
2023-04-21T01:22:43.120Z,20.90
2023-04-21T01:23:43.107Z,25.90
2023-04-21T01:24:43.097Z,21.10
2023-04-21T01:25:43.089Z,23.80
2023-04-21T01:26:43.083Z,21.70
2023-04-21T01:27:43.075Z,19.10
2023-04-21T01:28:43.084Z,17.20
2023-04-21T01:29:43.044Z,22.70
2023-04-21T01:30:43.032Z,21.80
2023-04-21T01:31:43.063Z,22.70
2023-04-21T01:32:43.044Z,22.10
2023-04-21T01:33:42.996Z,25.90
2023-04-21T01:34:42.986Z,23.70
2023-04-21T01:35:42.973Z,20.00
2023-04-21T01:36:42.963Z,22.80
2023-04-21T01:37:42.953Z,22.80
2023-04-21T01:38:42.947Z,21.70
2023-04-21T01:39:42.935Z,19.80
2023-04-21T01:40:42.922Z,20.40
2023-04-21T01:41:42.908Z,22.20
2023-04-21T01:42:42.908Z,27.70
2023-04-21T01:43:42.886Z,20.60
2023-04-21T01:44:42.910Z,22.50
2023-04-21T01:45:42.893Z,22.90
2023-04-21T01:46:42.870Z,22.60
2023-04-21T01:47:42.882Z,19.90
2023-04-21T01:48:42.839Z,20.10
2023-04-21T01:49:42.824Z,23.00
2023-04-21T01:50:42.809Z,23.30
2023-04-21T01:51:42.795Z,23.00
2023-04-21T01:52:42.794Z,20.50
2023-04-21T01:53:42.775Z,21.70
2023-04-21T01:54:42.769Z,20.20
2023-04-21T01:55:42.755Z,23.90
2023-04-21T01:56:42.790Z,24.20
2023-04-21T01:57:42.741Z,22.50
2023-04-21T01:58:42.725Z,23.60
2023-04-21T01:59:42.709Z,21.50
2023-04-21T02:00:42.722Z,21.30
2023-04-21T02:01:42.738Z,21.40
2023-04-21T02:02:42.873Z,19.00
2023-04-21T02:03:42.868Z,23.40
2023-04-21T02:04:42.653Z,24.60
2023-04-21T02:05:42.644Z,17.20
2023-04-21T02:06:42.631Z,20.40
2023-04-21T02:07:42.631Z,21.70
2023-04-21T02:08:42.694Z,21.50
2023-04-21T02:09:42.599Z,25.80
2023-04-21T02:10:42.590Z,20.90
2023-04-21T02:11:42.578Z,21.10
2023-04-21T02:12:42.574Z,22.30
2023-04-21T02:13:42.556Z,21.50
2023-04-21T02:14:42.542Z,21.70
2023-04-21T02:15:42.626Z,24.30
2023-04-21T02:16:42.555Z,22.20
2023-04-21T02:17:42.517Z,21.20
2023-04-21T02:18:42.526Z,25.90
2023-04-21T02:19:42.482Z,20.10
2023-04-21T02:20:42.485Z,21.90
2023-04-21T02:21:42.462Z,23.20
2023-04-21T02:22:42.462Z,17.30
2023-04-21T02:23:42.436Z,23.40
2023-04-21T02:24:42.430Z,21.40
2023-04-21T02:25:42.420Z,21.90
2023-04-21T02:26:42.406Z,25.80
2023-04-21T02:27:42.394Z,22.90
2023-04-21T02:28:42.381Z,18.60
2023-04-21T02:29:42.373Z,18.80
2023-04-21T02:30:42.697Z,17.10
2023-04-21T02:31:57.332Z,17.30
2023-04-21T02:32:42.432Z,22.30
2023-04-21T02:33:42.329Z,17.80
2023-04-21T02:34:42.315Z,20.50
2023-04-21T02:35:42.305Z,20.00
2023-04-21T02:36:42.307Z,18.50
2023-04-21T02:37:42.278Z,20.40
2023-04-21T02:38:42.269Z,21.90
2023-04-21T02:39:42.259Z,20.60
2023-04-21T02:40:42.248Z,17.40
2023-04-21T02:41:42.234Z,17.20
2023-04-21T02:42:42.223Z,18.90
2023-04-21T02:43:42.211Z,15.90
2023-04-21T02:44:42.208Z,20.70
2023-04-21T02:45:42.184Z,18.40
2023-04-21T02:46:42.218Z,24.00
2023-04-21T02:47:42.210Z,21.70
2023-04-21T02:48:42.181Z,21.60
2023-04-21T02:49:42.142Z,21.80
2023-04-21T02:50:42.134Z,17.30
2023-04-21T02:51:42.125Z,20.30
2023-04-21T02:52:42.111Z,24.30
2023-04-21T02:53:42.125Z,19.70
2023-04-21T02:54:42.129Z,23.70
2023-04-21T02:55:42.092Z,20.90
2023-04-21T02:56:42.072Z,16.70
2023-04-21T02:57:42.062Z,20.20
2023-04-21T02:58:42.045Z,18.30
2023-04-21T02:59:42.031Z,22.90
2023-04-21T03:00:42.044Z,18.40
2023-04-21T03:01:42.008Z,19.70
2023-04-21T03:02:42.162Z,18.50
2023-04-21T03:03:42.024Z,18.90
2023-04-21T03:04:42.042Z,19.80
2023-04-21T03:05:41.963Z,21.20
2023-04-21T03:06:41.951Z,18.50
2023-04-21T03:07:41.936Z,20.30
2023-04-21T03:08:41.933Z,19.40
2023-04-21T03:09:41.938Z,18.20
2023-04-21T03:10:41.914Z,24.20
2023-04-21T03:11:41.898Z,23.70
2023-04-21T03:12:41.891Z,16.10
2023-04-21T03:13:41.873Z,21.40
2023-04-21T03:14:41.862Z,21.00
2023-04-21T03:15:41.850Z,20.10
2023-04-21T03:16:41.864Z,19.30
2023-04-21T03:17:41.846Z,22.80
2023-04-21T03:18:41.825Z,21.00
2023-04-21T03:19:41.810Z,20.80
2023-04-21T03:20:41.830Z,20.80
2023-04-21T03:21:41.783Z,21.60
2023-04-21T03:22:41.771Z,23.20
2023-04-21T03:23:41.764Z,20.40
2023-04-21T03:24:41.755Z,20.90
2023-04-21T03:25:41.748Z,18.40
2023-04-21T03:26:41.741Z,18.00
2023-04-21T03:27:41.720Z,19.30
2023-04-21T03:28:41.716Z,18.60
2023-04-21T03:29:41.701Z,23.00
2023-04-21T03:30:41.690Z,20.70
2023-04-21T03:31:41.681Z,19.40
2023-04-21T03:32:41.736Z,22.30
2023-04-21T03:33:41.651Z,24.50
2023-04-21T03:34:41.642Z,18.30
2023-04-21T03:35:41.625Z,19.70
2023-04-21T03:36:41.641Z,18.80
2023-04-21T03:37:41.611Z,21.90
2023-04-21T03:38:41.595Z,18.40
2023-04-21T03:39:41.602Z,18.90
2023-04-21T03:40:41.584Z,22.00
2023-04-21T03:41:41.560Z,21.60
2023-04-21T03:42:41.562Z,19.00
2023-04-21T03:43:41.541Z,18.80
2023-04-21T03:44:41.534Z,19.60
2023-04-21T03:45:41.530Z,19.50
2023-04-21T03:46:41.510Z,22.20
2023-04-21T03:47:41.550Z,19.50
2023-04-21T03:48:41.486Z,18.60
2023-04-21T03:49:41.479Z,18.80
2023-04-21T03:50:41.459Z,19.30
2023-04-21T03:51:41.454Z,20.40
2023-04-21T03:52:41.459Z,24.00
2023-04-21T03:53:41.425Z,20.30
2023-04-21T03:54:41.418Z,21.10
2023-04-21T03:55:41.403Z,22.00
2023-04-21T03:56:41.397Z,22.30
2023-04-21T03:57:41.390Z,17.50
2023-04-21T03:58:41.370Z,18.70
2023-04-21T03:59:41.359Z,18.20
2023-04-21T04:00:41.351Z,22.70
2023-04-21T04:01:41.352Z,19.30
2023-04-21T04:02:41.487Z,19.00
2023-04-21T04:03:41.559Z,23.50
2023-04-21T04:04:41.485Z,20.50
2023-04-21T04:05:41.412Z,19.40
2023-04-21T04:06:41.288Z,22.80
2023-04-21T04:07:41.268Z,20.00
2023-04-21T04:08:41.285Z,20.40
2023-04-21T04:09:41.254Z,19.00
2023-04-21T04:10:41.239Z,16.70
2023-04-21T04:11:41.234Z,20.70
2023-04-21T04:12:41.216Z,24.00
2023-04-21T04:13:41.202Z,19.60
2023-04-21T04:14:41.194Z,19.00
2023-04-21T04:15:41.210Z,20.40
2023-04-21T04:16:41.175Z,19.80
2023-04-21T04:17:41.198Z,20.90
2023-04-21T04:18:41.148Z,19.30
2023-04-21T04:19:41.132Z,21.70
2023-04-21T04:20:41.125Z,19.30
2023-04-21T04:21:41.119Z,20.30
2023-04-21T04:22:41.112Z,21.50
2023-04-21T04:23:41.100Z,19.90
2023-04-21T04:24:41.109Z,20.20
2023-04-21T04:25:41.070Z,20.20
2023-04-21T04:26:41.064Z,20.90
2023-04-21T04:27:41.045Z,21.00
2023-04-21T04:28:41.037Z,16.80
2023-04-21T04:29:41.032Z,16.60
2023-04-21T04:30:41.018Z,22.00
2023-04-21T04:31:41.087Z,26.50
2023-04-21T04:32:41.080Z,17.20
2023-04-21T04:33:40.992Z,18.20
2023-04-21T04:34:40.966Z,20.30
2023-04-21T04:35:40.954Z,17.30
2023-04-21T04:36:40.942Z,21.60
2023-04-21T04:37:40.933Z,21.30
2023-04-21T04:38:40.919Z,18.60
2023-04-21T04:39:40.910Z,20.90
2023-04-21T04:40:40.918Z,20.00
2023-04-21T04:41:40.886Z,23.90
2023-04-21T04:42:40.882Z,26.60
2023-04-21T04:43:40.863Z,18.50
2023-04-21T04:44:40.855Z,20.30
2023-04-21T04:45:40.844Z,19.20
2023-04-21T04:46:40.917Z,21.70
2023-04-21T04:47:40.876Z,21.70
2023-04-21T04:48:40.817Z,19.90
2023-04-21T04:49:40.798Z,23.10
2023-04-21T04:50:40.796Z,20.90
2023-04-21T04:51:40.782Z,22.30
2023-04-21T04:52:40.767Z,20.90
2023-04-21T04:53:40.759Z,25.20
2023-04-21T04:54:40.734Z,21.30
2023-04-21T04:55:40.757Z,20.90
2023-04-21T04:56:40.743Z,16.20
2023-04-21T04:57:40.710Z,19.60
2023-04-21T04:58:40.750Z,20.60
2023-04-21T04:59:40.717Z,22.80
2023-04-21T05:00:40.772Z,17.10
2023-04-21T05:01:40.849Z,18.60
2023-04-21T05:02:40.974Z,17.90
2023-04-21T05:03:40.873Z,16.70
2023-04-21T05:04:40.845Z,23.10
2023-04-21T05:05:40.733Z,18.40
2023-04-21T05:06:40.790Z,21.10
2023-04-21T05:07:40.615Z,19.70
2023-04-21T05:08:40.577Z,20.20
2023-04-21T05:09:40.575Z,17.60
2023-04-21T05:10:40.561Z,14.50
2023-04-21T05:11:40.552Z,21.60
2023-04-21T05:12:40.567Z,19.10
2023-04-21T05:13:40.525Z,16.80
2023-04-21T05:14:40.524Z,18.60
2023-04-21T05:15:40.507Z,19.80
2023-04-21T05:16:40.512Z,20.00
2023-04-21T05:17:40.556Z,15.80
2023-04-21T05:18:40.473Z,20.20
2023-04-21T05:19:40.462Z,16.40
2023-04-21T05:20:40.463Z,18.00
2023-04-21T05:21:40.448Z,18.70
2023-04-21T05:22:40.440Z,18.10
2023-04-21T05:23:40.670Z,13.70
2023-04-21T05:24:40.405Z,17.90
2023-04-21T05:25:40.400Z,17.70
2023-04-21T05:26:40.385Z,14.60
2023-04-21T05:27:40.371Z,16.00
2023-04-21T05:28:40.395Z,16.00
2023-04-21T05:29:40.363Z,15.80
2023-04-21T05:30:40.488Z,16.80
2023-04-21T05:31:40.365Z,15.20
2023-04-21T05:32:40.367Z,14.30
2023-04-21T05:33:40.304Z,15.60
2023-04-21T05:34:40.289Z,13.50
2023-04-21T05:35:40.286Z,15.50
2023-04-21T05:36:40.270Z,13.30
2023-04-21T05:37:40.261Z,12.60
2023-04-21T05:38:40.250Z,14.60
2023-04-21T05:39:40.261Z,13.40
2023-04-21T05:40:40.237Z,13.90
2023-04-21T05:41:40.215Z,13.60
2023-04-21T05:42:40.208Z,15.10
2023-04-21T05:43:40.195Z,15.40
2023-04-21T05:44:40.214Z,15.80
2023-04-21T05:45:40.212Z,14.80
2023-04-21T05:46:40.255Z,16.20
2023-04-21T05:47:40.209Z,14.70
2023-04-21T05:48:40.149Z,13.30
2023-04-21T05:49:40.127Z,12.70
2023-04-21T05:50:40.120Z,12.50
2023-04-21T05:51:40.151Z,14.20
2023-04-21T05:52:40.131Z,11.50
2023-04-21T05:53:40.091Z,13.60
2023-04-21T05:54:40.074Z,15.20
2023-04-21T05:55:40.059Z,17.90
2023-04-21T05:56:40.046Z,13.30
2023-04-21T05:57:40.051Z,17.90
2023-04-21T05:58:40.034Z,15.50
2023-04-21T05:59:40.021Z,13.30
2023-04-21T06:00:40.046Z,12.90
2023-04-21T06:01:39.988Z,11.60
2023-04-21T06:02:40.206Z,14.80
2023-04-21T06:03:40.102Z,16.50
2023-04-21T06:04:40.562Z,13.90
2023-04-21T06:05:40.021Z,13.40
2023-04-21T06:06:39.937Z,14.10
2023-04-21T06:07:39.932Z,14.80
2023-04-21T06:08:39.920Z,12.20
2023-04-21T06:09:39.916Z,16.10
2023-04-21T06:10:39.888Z,16.90
2023-04-21T06:11:39.874Z,12.30
2023-04-21T06:12:39.866Z,11.20
2023-04-21T06:13:42.266Z,13.30
2023-04-21T06:14:39.853Z,16.00
2023-04-21T06:15:39.830Z,10.30
2023-04-21T06:16:39.910Z,13.50
2023-04-21T06:17:40.027Z,12.30
2023-04-21T06:18:39.805Z,14.80
2023-04-21T06:19:41.820Z,13.60
2023-04-21T06:20:39.797Z,14.20
2023-04-21T06:21:39.766Z,12.10
2023-04-21T06:22:39.786Z,13.30
2023-04-21T06:23:39.739Z,14.70
2023-04-21T06:24:39.741Z,15.10
2023-04-21T06:25:39.725Z,15.40
2023-04-21T06:26:39.713Z,14.90
2023-04-21T06:27:39.695Z,14.70
2023-04-21T06:28:39.678Z,12.90
2023-04-21T06:29:39.671Z,14.30
2023-04-21T06:30:39.667Z,11.40
2023-04-21T06:31:39.684Z,13.60
2023-04-21T06:32:39.756Z,16.70
2023-04-21T06:33:39.672Z,12.10
2023-04-21T06:34:39.662Z,14.40
2023-04-21T06:35:39.603Z,19.90
2023-04-21T06:36:39.598Z,14.70
2023-04-21T06:37:39.586Z,15.20
2023-04-21T06:38:39.570Z,14.50
2023-04-21T06:39:39.564Z,13.80
2023-04-21T06:40:39.544Z,15.40
2023-04-21T06:41:39.544Z,15.70
2023-04-21T06:42:39.522Z,14.70
2023-04-21T06:43:39.513Z,12.90
2023-04-21T06:44:39.505Z,13.00
2023-04-21T06:45:39.485Z,12.70
2023-04-21T06:46:39.568Z,13.80
2023-04-21T06:47:39.526Z,14.70
2023-04-21T06:48:39.510Z,14.90
2023-04-21T06:49:39.485Z,12.70
2023-04-21T06:50:39.472Z,16.80
2023-04-21T06:51:39.438Z,13.30
2023-04-21T06:52:39.410Z,13.10
2023-04-21T06:53:39.402Z,16.40
2023-04-21T06:54:39.388Z,11.80
2023-04-21T06:55:39.380Z,12.30
2023-04-21T06:56:39.367Z,11.10
2023-04-21T06:57:39.358Z,13.40
2023-04-21T06:58:39.356Z,15.40
2023-04-21T06:59:39.335Z,13.90
2023-04-21T07:00:39.355Z,17.40
2023-04-21T07:01:39.521Z,13.40
2023-04-21T07:02:39.470Z,16.40
2023-04-21T07:03:39.341Z,12.80
2023-04-21T07:04:39.372Z,17.00
2023-04-21T07:05:39.320Z,15.40
2023-04-21T07:06:39.255Z,15.30
2023-04-21T07:07:39.245Z,16.10
2023-04-21T07:08:39.235Z,12.10
2023-04-21T07:09:39.220Z,12.40
2023-04-21T07:10:39.216Z,15.40
2023-04-21T07:11:39.201Z,13.60
2023-04-21T07:12:39.189Z,15.70
2023-04-21T07:13:39.182Z,13.50
2023-04-21T07:14:39.175Z,15.20
2023-04-21T07:15:39.176Z,16.20
2023-04-21T07:16:39.157Z,14.90
2023-04-21T07:17:39.161Z,13.00
2023-04-21T07:18:39.147Z,12.90
2023-04-21T07:19:39.155Z,14.10
2023-04-21T07:20:39.128Z,17.70
2023-04-21T07:21:39.119Z,14.70
2023-04-21T07:22:39.084Z,14.50
2023-04-21T07:23:39.073Z,15.50
2023-04-21T07:24:39.064Z,16.10
2023-04-21T07:25:39.055Z,14.20
2023-04-21T07:26:39.037Z,13.80
2023-04-21T07:27:39.039Z,13.30
2023-04-21T07:28:39.012Z,11.90
2023-04-21T07:29:39.013Z,12.60
2023-04-21T07:30:39.026Z,13.30
2023-04-21T07:31:39.032Z,16.50
2023-04-21T07:32:39.178Z,17.70
2023-04-21T07:33:38.993Z,12.30
2023-04-21T07:34:38.944Z,13.20
2023-04-21T07:35:38.936Z,9.90
2023-04-21T07:36:38.965Z,16.00
2023-04-21T07:37:38.911Z,12.10
2023-04-21T07:38:38.901Z,12.50
2023-04-21T07:39:38.892Z,14.00
2023-04-21T07:40:38.897Z,15.70
2023-04-21T07:41:38.868Z,15.60
2023-04-21T07:42:38.867Z,15.70
2023-04-21T07:43:38.843Z,11.80
2023-04-21T07:44:38.836Z,10.90
2023-04-21T07:45:38.831Z,14.40
2023-04-21T07:46:38.965Z,16.20
2023-04-21T07:47:38.867Z,11.10
2023-04-21T07:48:38.801Z,15.80
2023-04-21T07:49:38.788Z,14.40
2023-04-21T07:50:38.931Z,12.90
2023-04-21T07:51:38.755Z,12.30
2023-04-21T07:52:38.772Z,11.90
2023-04-21T07:53:38.737Z,12.60
2023-04-21T07:54:38.734Z,13.50
2023-04-21T07:55:38.710Z,13.10
2023-04-21T07:56:38.701Z,13.90
2023-04-21T07:57:38.724Z,16.50
2023-04-21T07:58:38.678Z,12.60
2023-04-21T07:59:38.698Z,14.00
2023-04-21T08:00:38.689Z,14.60
2023-04-21T08:01:38.668Z,18.20
2023-04-21T08:02:38.681Z,11.00
2023-04-21T08:03:39.127Z,14.70
2023-04-21T08:04:38.793Z,12.60
2023-04-21T08:05:41.164Z,13.30
2023-04-21T08:06:38.778Z,10.80
2023-04-21T08:07:38.592Z,13.00
2023-04-21T08:08:38.626Z,13.60
2023-04-21T08:09:38.555Z,12.50
2023-04-21T08:10:38.597Z,10.90
2023-04-21T08:11:38.570Z,13.10
2023-04-21T08:12:38.564Z,14.00
2023-04-21T08:13:38.511Z,13.30
2023-04-21T08:14:38.592Z,11.80
2023-04-21T08:15:38.528Z,15.40
2023-04-21T08:16:38.567Z,13.20
2023-04-21T08:17:38.503Z,15.20
2023-04-21T08:18:38.467Z,16.40
2023-04-21T08:19:38.502Z,12.50
2023-04-21T08:20:38.449Z,13.20
2023-04-21T08:21:38.432Z,13.80
2023-04-21T08:22:38.469Z,13.80
2023-04-21T08:23:38.405Z,11.80
2023-04-21T08:24:38.413Z,12.70
2023-04-21T08:25:38.388Z,15.90
2023-04-21T08:26:38.402Z,12.40
2023-04-21T08:27:38.364Z,14.10
2023-04-21T08:28:38.391Z,10.90
2023-04-21T08:29:38.361Z,11.80
2023-04-21T08:30:38.621Z,13.60
2023-04-21T08:31:38.388Z,12.40
2023-04-21T08:32:38.338Z,12.60
2023-04-21T08:33:46.746Z,14.70
2023-04-21T08:34:39.307Z,10.80
2023-04-21T08:35:39.579Z,12.20
2023-04-21T08:36:38.258Z,10.80
2023-04-21T08:37:38.260Z,10.60
2023-04-21T08:38:38.235Z,13.20
2023-04-21T08:39:38.240Z,15.20
2023-04-21T08:40:38.237Z,13.80
2023-04-21T08:41:38.264Z,16.20
2023-04-21T08:42:38.206Z,13.70
2023-04-21T08:43:38.208Z,13.20
2023-04-21T08:44:38.178Z,13.90
2023-04-21T08:45:38.184Z,14.20
2023-04-21T08:46:38.150Z,11.10
2023-04-21T08:47:38.173Z,11.90
2023-04-21T08:48:38.134Z,9.60
2023-04-21T08:49:38.153Z,12.90
2023-04-21T08:50:38.116Z,12.60
2023-04-21T08:51:38.125Z,14.20
2023-04-21T08:52:38.094Z,11.50
2023-04-21T08:53:38.073Z,11.90
2023-04-21T08:54:38.066Z,11.70
2023-04-21T08:55:38.059Z,13.30
2023-04-21T08:56:38.106Z,13.50
2023-04-21T08:57:38.038Z,12.60
2023-04-21T08:58:38.055Z,11.70
2023-04-21T08:59:38.011Z,14.60
2023-04-21T09:00:38.069Z,10.30
2023-04-21T09:01:38.047Z,11.60
2023-04-21T09:02:38.081Z,11.20
2023-04-21T09:03:38.375Z,14.20
2023-04-21T09:04:38.210Z,10.40
2023-04-21T09:05:41.807Z,14.60
2023-04-21T09:06:38.071Z,14.20
2023-04-21T09:07:37.947Z,12.70
2023-04-21T09:08:37.921Z,14.10
2023-04-21T09:09:37.908Z,10.50
2023-04-21T09:10:37.893Z,9.90
2023-04-21T09:11:37.884Z,12.10
2023-04-21T09:12:37.907Z,12.90
2023-04-21T09:13:37.881Z,9.90
2023-04-21T09:14:37.848Z,12.90
2023-04-21T09:15:37.835Z,10.50
2023-04-21T09:16:37.877Z,11.90
2023-04-21T09:17:37.954Z,10.90
2023-04-21T09:18:37.817Z,10.70
2023-04-21T09:19:37.801Z,11.50
2023-04-21T09:20:38.176Z,11.20
2023-04-21T09:21:37.770Z,11.10
2023-04-21T09:22:37.770Z,12.50
2023-04-21T09:23:37.757Z,11.10
2023-04-21T09:24:37.739Z,14.10
2023-04-21T09:25:37.737Z,10.30
2023-04-21T09:26:37.722Z,10.70
2023-04-21T09:27:37.710Z,12.50
2023-04-21T09:28:37.830Z,12.30
2023-04-21T09:29:37.914Z,10.00
2023-04-21T09:30:38.226Z,11.70
2023-04-21T09:31:37.882Z,11.30
2023-04-21T09:32:37.789Z,10.60
2023-04-21T09:34:37.646Z,10.90
2023-04-21T09:35:37.654Z,11.10
2023-04-21T09:36:37.622Z,11.50
2023-04-21T09:37:37.619Z,13.90
2023-04-21T09:38:37.611Z,11.30
2023-04-21T09:39:49.349Z,10.20
2023-04-21T09:40:38.980Z,9.60
2023-04-21T09:41:37.576Z,12.70
2023-04-21T09:42:40.134Z,14.60
2023-04-21T09:43:37.562Z,12.90
2023-04-21T09:44:50.396Z,11.30
2023-04-21T09:45:40.538Z,14.40
2023-04-21T09:46:37.956Z,11.60
2023-04-21T09:47:37.510Z,11.40
2023-04-21T09:48:37.490Z,9.80
2023-04-21T09:49:37.472Z,11.30
2023-04-21T09:52:37.460Z,10.20
2023-04-21T09:53:37.431Z,10.80
2023-04-21T09:54:37.435Z,11.50
2023-04-21T09:55:37.443Z,10.20
2023-04-21T09:56:37.403Z,13.20
2023-04-21T09:57:37.393Z,10.80
2023-04-21T09:58:37.379Z,9.60
2023-04-21T09:59:37.373Z,11.80
2023-04-21T10:00:37.384Z,11.40
2023-04-21T10:01:37.385Z,13.00
2023-04-21T10:02:37.547Z,9.90
2023-04-21T10:03:37.444Z,11.20
2023-04-21T10:04:37.849Z,11.80
2023-04-21T10:05:40.083Z,10.40
2023-04-21T10:06:37.294Z,11.20
2023-04-21T10:07:37.285Z,12.20
2023-04-21T10:08:37.298Z,12.80
2023-04-21T10:09:37.280Z,10.80
2023-04-21T10:10:37.254Z,11.40
2023-04-21T10:11:37.251Z,8.90
2023-04-21T10:12:37.233Z,11.20
2023-04-21T10:13:37.222Z,12.40
2023-04-21T10:14:37.219Z,8.70
2023-04-21T10:15:37.197Z,11.20
2023-04-21T10:16:37.450Z,15.10
2023-04-21T10:17:37.229Z,12.50
2023-04-21T10:18:37.174Z,11.80
2023-04-21T10:19:37.166Z,15.50
2023-04-21T10:20:37.266Z,11.50
2023-04-21T10:21:37.149Z,11.60
2023-04-21T10:22:37.132Z,11.60
2023-04-21T10:23:37.119Z,9.60
2023-04-21T10:24:37.104Z,12.10
2023-04-21T10:25:37.094Z,12.00
2023-04-21T10:26:37.099Z,11.00
2023-04-21T10:27:37.080Z,11.80
2023-04-21T10:28:37.062Z,13.30
2023-04-21T10:29:52.573Z,10.70
2023-04-21T10:30:38.063Z,11.20
2023-04-21T10:31:37.072Z,12.20
2023-04-21T10:32:37.201Z,13.70
2023-04-21T10:33:37.014Z,10.00
2023-04-21T10:34:37.002Z,10.00
2023-04-21T10:35:37.023Z,13.00
2023-04-21T10:36:36.972Z,9.40
2023-04-21T10:37:36.964Z,12.10
2023-04-21T10:38:36.956Z,11.70
2023-04-21T10:39:36.948Z,13.60
2023-04-21T10:40:44.200Z,8.50
2023-04-21T10:41:37.952Z,8.70
2023-04-21T10:42:37.113Z,15.00
2023-04-21T10:43:36.990Z,10.00
2023-04-21T10:44:36.889Z,8.90
2023-04-21T10:45:36.874Z,10.30
2023-04-21T10:46:37.068Z,10.40
2023-04-21T10:47:36.895Z,12.30
2023-04-21T10:48:36.882Z,9.90
2023-04-21T10:49:36.836Z,11.20
2023-04-21T10:50:38.958Z,11.70
2023-04-21T10:51:36.813Z,11.80
2023-04-21T10:52:36.823Z,10.10
2023-04-21T10:53:36.815Z,10.00
2023-04-21T10:54:36.797Z,9.80
2023-04-21T10:55:36.884Z,10.80
2023-04-21T10:56:38.681Z,12.20
2023-04-21T10:57:36.779Z,9.60
2023-04-21T10:58:36.744Z,12.60
2023-04-21T10:59:36.737Z,9.90
2023-04-21T11:00:36.791Z,8.30
2023-04-21T11:01:36.748Z,9.90
2023-04-21T11:02:39.078Z,9.00
2023-04-21T11:03:36.876Z,10.70
2023-04-21T11:04:37.059Z,12.10
2023-04-21T11:05:36.680Z,9.70
2023-04-21T11:06:36.692Z,10.30
2023-04-21T11:07:36.642Z,8.90
2023-04-21T11:08:38.213Z,11.80
2023-04-21T11:09:36.637Z,9.10
2023-04-21T11:10:36.622Z,8.70
2023-04-21T11:11:36.641Z,9.60
2023-04-21T11:12:36.605Z,10.00
2023-04-21T11:13:36.587Z,10.20
2023-04-21T11:14:37.032Z,10.30
2023-04-21T11:15:36.575Z,11.80
2023-04-21T11:16:36.623Z,8.90
2023-04-21T11:17:36.609Z,12.10
2023-04-21T11:18:36.645Z,8.80
2023-04-21T11:19:36.538Z,9.90
2023-04-21T11:20:36.603Z,8.80
2023-04-21T11:21:36.540Z,11.90
2023-04-21T11:22:36.485Z,10.00
2023-04-21T11:23:36.494Z,10.90
2023-04-21T11:24:36.478Z,9.90
2023-04-21T11:25:36.505Z,8.70
2023-04-21T11:26:36.449Z,9.10
2023-04-21T11:27:36.437Z,10.50
2023-04-21T11:28:36.427Z,9.10
2023-04-21T11:29:36.440Z,8.80
2023-04-21T11:30:36.581Z,11.20
2023-04-21T11:31:36.543Z,9.90
2023-04-21T11:32:38.130Z,8.30
2023-04-21T11:33:36.369Z,12.10
2023-04-21T11:34:36.378Z,9.40
2023-04-21T11:35:36.349Z,11.20
2023-04-21T11:36:36.372Z,10.40
2023-04-21T11:37:36.336Z,9.90
2023-04-21T11:38:36.329Z,8.90
2023-04-21T11:39:36.311Z,9.80
2023-04-21T11:40:36.380Z,9.00
2023-04-21T11:41:36.315Z,12.80
2023-04-21T11:42:36.284Z,10.20
2023-04-21T11:43:36.270Z,10.90
2023-04-21T11:44:36.256Z,8.90
2023-04-21T11:45:36.245Z,9.90
2023-04-21T11:46:37.134Z,10.30
2023-04-21T11:47:36.271Z,8.80
2023-04-21T11:48:36.224Z,11.30
2023-04-21T11:49:36.212Z,8.50
2023-04-21T11:50:36.198Z,8.60
2023-04-21T11:51:36.193Z,9.20
2023-04-21T11:52:36.200Z,9.60
2023-04-21T11:53:36.266Z,9.10
2023-04-21T11:54:36.156Z,11.10
2023-04-21T11:55:36.150Z,8.20
2023-04-21T11:56:36.333Z,8.90
2023-04-21T11:57:36.119Z,10.80
2023-04-21T11:58:36.108Z,9.00
2023-04-21T11:59:36.097Z,9.40
2023-04-21T12:00:36.112Z,13.50
2023-04-21T12:01:36.086Z,8.80
2023-04-21T12:02:36.193Z,9.80
2023-04-21T12:03:36.204Z,7.00
2023-04-21T12:04:36.137Z,8.10
2023-04-21T12:05:36.201Z,8.70
2023-04-21T12:06:36.033Z,8.30
2023-04-21T12:07:36.016Z,12.00
2023-04-21T12:08:36.082Z,8.60
2023-04-21T12:09:35.997Z,9.30
2023-04-21T12:10:35.992Z,10.10
2023-04-21T12:11:35.982Z,8.00
2023-04-21T12:12:36.050Z,8.30
2023-04-21T12:13:35.956Z,7.10
2023-04-21T12:14:35.942Z,9.70
2023-04-21T12:15:35.986Z,7.70
2023-04-21T12:16:35.946Z,7.80
2023-04-21T12:17:36.022Z,11.60
2023-04-21T12:18:36.747Z,8.10
2023-04-21T12:19:35.929Z,7.50
2023-04-21T12:20:36.088Z,7.30
2023-04-21T12:21:35.979Z,10.70
2023-04-21T12:22:35.984Z,7.80
2023-04-21T12:23:36.033Z,11.00
2023-04-21T12:24:36.811Z,13.10
2023-04-21T12:25:35.963Z,9.50
2023-04-21T12:26:35.844Z,11.50
2023-04-21T12:27:36.723Z,9.50
2023-04-21T12:28:35.792Z,8.40
2023-04-21T12:29:35.800Z,8.40
2023-04-21T12:30:39.246Z,9.10
2023-04-21T12:31:36.126Z,8.90
2023-04-21T12:32:35.826Z,9.30
2023-04-21T12:33:35.800Z,7.60
2023-04-21T12:34:35.732Z,12.30
2023-04-21T12:35:35.724Z,9.50
2023-04-21T12:36:36.587Z,7.00
2023-04-21T12:37:35.696Z,10.90
2023-04-21T12:38:35.695Z,8.30
2023-04-21T12:39:35.686Z,7.30
2023-04-21T12:40:35.688Z,8.00
2023-04-21T12:41:35.653Z,6.90
2023-04-21T12:42:37.780Z,11.40
2023-04-21T12:43:35.834Z,8.90
2023-04-21T12:44:35.650Z,6.40
2023-04-21T12:45:35.691Z,8.20
2023-04-21T12:46:35.609Z,7.30
2023-04-21T12:47:35.670Z,7.80
2023-04-21T12:48:35.586Z,8.00
2023-04-21T12:49:35.736Z,7.20
2023-04-21T12:50:35.564Z,8.60
2023-04-21T12:51:35.560Z,7.50
2023-04-21T12:52:35.549Z,10.90
2023-04-21T12:53:35.700Z,9.80
2023-04-21T12:54:35.791Z,8.20
2023-04-21T12:55:35.508Z,9.50
2023-04-21T12:56:35.524Z,8.30
2023-04-21T12:57:35.536Z,7.00
2023-04-21T12:58:35.533Z,8.80
2023-04-21T12:59:35.552Z,7.50